createdAt,value
2017-09-10T00:02:08.796Z,99140.23
2017-09-10T00:04:36.454Z,99140.29
2017-09-10T00:07:03.929Z,99138.86
2017-09-10T00:09:31.385Z,99142.40
2017-09-10T00:11:58.881Z,99148.22
2017-09-10T00:14:26.324Z,99136.36
2017-09-10T00:16:53.829Z,99151.00
2017-09-10T00:19:21.285Z,99141.73
2017-09-10T00:21:48.761Z,99149.04
2017-09-10T00:24:16.220Z,99144.81
2017-09-10T00:26:43.761Z,99155.39
2017-09-10T00:29:11.312Z,99151.84
2017-09-10T00:31:38.892Z,99157.14
2017-09-10T00:34:06.481Z,99163.23
2017-09-10T00:36:33.961Z,99164.83
2017-09-10T00:39:01.416Z,99167.84
2017-09-10T00:41:29.302Z,99172.41
2017-09-10T00:43:56.869Z,99175.17
2017-09-10T00:46:24.354Z,99182.22
2017-09-10T00:48:51.815Z,99187.63
2017-09-10T00:51:19.337Z,99187.12
2017-09-10T00:53:47.304Z,99191.58
2017-09-10T00:56:14.782Z,99188.41
2017-09-10T00:58:42.228Z,99190.80
2017-09-10T01:01:09.676Z,99190.26
2017-09-10T01:03:37.157Z,99192.48
2017-09-10T01:06:04.745Z,99202.41
2017-09-10T01:08:32.250Z,99201.37
2017-09-10T01:10:59.812Z,99202.56
2017-09-10T01:13:27.284Z,99202.91
2017-09-10T01:15:54.731Z,99212.17
2017-09-10T01:18:22.207Z,99201.16
2017-09-10T01:20:50.305Z,99202.94
2017-09-10T01:23:17.817Z,99201.06
2017-09-10T01:25:45.264Z,99210.22
2017-09-10T01:28:12.791Z,99216.52
2017-09-10T01:30:40.281Z,99215.85
2017-09-10T01:33:07.820Z,99221.25
2017-09-10T01:35:35.314Z,99225.11
2017-09-10T01:38:02.780Z,99228.49
2017-09-10T01:40:30.237Z,99234.75
2017-09-10T01:42:57.768Z,99225.69
2017-09-10T01:45:25.642Z,99221.35
2017-09-10T01:47:53.112Z,99222.80
2017-09-10T01:50:20.580Z,99227.03
2017-09-10T01:52:48.063Z,99224.30
2017-09-10T01:55:15.544Z,99226.82
2017-09-10T01:57:43.373Z,99228.27
2017-09-10T02:00:10.874Z,99238.90
2017-09-10T02:02:38.349Z,99234.19
2017-09-10T02:05:05.828Z,99239.78
2017-09-10T02:07:33.365Z,99235.55
2017-09-10T02:10:01.071Z,99232.78
2017-09-10T02:12:28.525Z,99238.71
2017-09-10T02:14:55.997Z,99232.75
2017-09-10T02:17:23.489Z,99234.80
2017-09-10T02:19:50.973Z,99242.30
2017-09-10T02:22:18.641Z,99237.53
2017-09-10T02:24:46.153Z,99240.80
2017-09-10T02:27:13.646Z,99245.72
2017-09-10T02:29:41.213Z,99244.42
2017-09-10T02:32:08.663Z,99241.30
2017-09-10T02:34:36.162Z,99240.11
2017-09-10T02:37:03.623Z,99241.94
2017-09-10T02:39:31.117Z,99248.31
2017-09-10T02:41:58.673Z,99248.61
2017-09-10T02:44:26.226Z,99256.58
2017-09-10T02:46:53.717Z,99262.08
2017-09-10T02:49:21.202Z,99261.38
2017-09-10T02:51:48.647Z,99258.06
2017-09-10T02:54:16.131Z,99258.97
2017-09-10T02:56:43.613Z,99259.55
2017-09-10T02:59:11.297Z,99264.42
2017-09-10T03:01:38.885Z,99266.89
2017-09-10T03:04:06.370Z,99267.41
2017-09-10T03:06:33.820Z,99273.37
2017-09-10T03:09:01.306Z,99272.77
2017-09-10T03:11:28.798Z,99274.01
2017-09-10T03:13:56.267Z,99277.58
2017-09-10T03:16:23.748Z,99280.28
2017-09-10T03:18:51.196Z,99286.73
2017-09-10T03:21:18.669Z,99290.44
2017-09-10T03:23:46.131Z,99287.78
2017-09-10T03:26:13.628Z,99286.85
2017-09-10T03:28:41.084Z,99293.58
2017-09-10T03:31:08.583Z,99289.20
2017-09-10T03:33:36.085Z,99294.88
2017-09-10T03:36:03.645Z,99293.98
2017-09-10T03:38:31.096Z,99300.70
2017-09-10T03:40:58.568Z,99315.42
2017-09-10T03:43:26.024Z,99313.84
2017-09-10T03:45:53.560Z,99314.48
2017-09-10T03:48:21.120Z,99317.48
2017-09-10T03:50:48.588Z,99315.72
2017-09-10T03:53:16.041Z,99316.23
2017-09-10T03:55:43.541Z,99323.48
2017-09-10T03:58:11.005Z,99335.41
2017-09-10T04:00:38.501Z,99331.38
2017-09-10T04:03:05.954Z,99333.54
2017-09-10T04:05:33.410Z,99331.58
2017-09-10T04:08:00.880Z,99333.33
2017-09-10T04:10:28.384Z,99338.42
2017-09-10T04:12:55.886Z,99338.34
2017-09-10T04:15:23.348Z,99341.91
2017-09-10T04:17:50.840Z,99341.40
2017-09-10T04:20:18.302Z,99343.98
2017-09-10T04:22:45.773Z,99349.89
2017-09-10T04:25:13.467Z,99347.13
2017-09-10T04:27:41.037Z,99345.55
2017-09-10T04:30:08.606Z,99346.14
2017-09-10T04:32:36.157Z,99348.99
2017-09-10T04:35:03.611Z,99347.74
2017-09-10T04:37:31.627Z,99348.64
2017-09-10T04:39:59.115Z,99354.31
2017-09-10T04:42:26.593Z,99359.80
2017-09-10T04:44:54.069Z,99364.78
2017-09-10T04:47:21.553Z,99362.85
2017-09-10T04:49:49.000Z,99367.13
2017-09-10T04:52:16.525Z,99370.61
2017-09-10T04:54:44.000Z,99370.33
2017-09-10T04:57:11.471Z,99376.05
2017-09-10T04:59:39.005Z,99372.56
2017-09-10T05:02:06.469Z,99373.07
2017-09-10T05:04:34.013Z,99386.11
2017-09-10T05:07:01.579Z,99392.54
2017-09-10T05:09:29.062Z,99382.82
2017-09-10T05:11:56.512Z,99387.32
2017-09-10T05:14:24.048Z,99390.97
2017-09-10T05:16:51.537Z,99396.97
2017-09-10T05:19:19.013Z,99395.95
2017-09-10T05:21:46.541Z,99400.98
2017-09-10T05:24:14.073Z,99403.97
2017-09-10T05:26:41.541Z,99411.62
2017-09-10T05:29:09.100Z,99415.17
2017-09-10T05:31:36.558Z,99411.28
2017-09-10T05:34:04.077Z,99418.16
2017-09-10T05:36:31.552Z,99412.98
2017-09-10T05:38:59.026Z,99421.80
2017-09-10T05:41:26.573Z,99426.21
2017-09-10T05:43:54.156Z,99435.34
2017-09-10T05:46:21.613Z,99433.75
2017-09-10T05:48:49.105Z,99435.88
2017-09-10T05:51:16.561Z,99441.70
2017-09-10T05:53:44.041Z,99441.66
2017-09-10T05:56:11.495Z,99437.53
2017-09-10T05:58:39.080Z,99451.66
2017-09-10T06:01:06.532Z,99452.13
2017-09-10T06:03:34.025Z,99452.23
2017-09-10T06:06:01.502Z,99454.56
2017-09-10T06:08:29.092Z,99463.25
2017-09-10T06:10:56.572Z,99454.64
2017-09-10T06:13:24.131Z,99459.86
2017-09-10T06:15:51.618Z,99462.60
2017-09-10T06:18:19.105Z,99455.36
2017-09-10T06:20:46.572Z,99460.44
2017-09-10T06:23:14.070Z,99464.36
2017-09-10T06:25:41.648Z,99469.00
2017-09-10T06:28:09.105Z,99480.87
2017-09-10T06:30:36.634Z,99470.01
2017-09-10T06:33:04.100Z,99470.78
2017-09-10T06:35:31.563Z,99470.86
2017-09-10T06:37:59.022Z,99471.13
2017-09-10T06:40:26.573Z,99483.39
2017-09-10T06:42:54.045Z,99476.34
2017-09-10T06:45:21.529Z,99473.52
2017-09-10T06:47:48.988Z,99457.98
2017-09-10T06:50:16.461Z,99461.88
2017-09-10T06:52:43.951Z,99463.28
2017-09-10T06:55:11.428Z,99464.85
2017-09-10T06:57:38.952Z,99466.10
2017-09-10T07:00:06.438Z,99467.05
2017-09-10T07:02:33.972Z,99462.77
2017-09-10T07:05:01.433Z,99459.03
2017-09-10T07:07:28.911Z,99458.77
2017-09-10T07:09:56.373Z,99461.08
2017-09-10T07:12:23.852Z,99453.17
2017-09-10T07:14:51.309Z,99451.53
2017-09-10T07:17:18.809Z,99455.74
2017-09-10T07:19:46.256Z,99461.81
2017-09-10T07:22:13.725Z,99468.78
2017-09-10T07:24:41.231Z,99472.75
2017-09-10T07:27:08.744Z,99481.83
2017-09-10T07:29:36.197Z,99479.06
2017-09-10T07:32:03.680Z,99476.31
2017-09-10T07:34:31.221Z,99473.34
2017-09-10T07:36:59.168Z,99474.33
2017-09-10T07:39:26.659Z,99473.02
2017-09-10T07:41:54.127Z,99471.77
2017-09-10T07:44:21.585Z,99481.91
2017-09-10T07:46:49.093Z,99486.26
2017-09-10T07:49:16.849Z,99495.81
2017-09-10T07:51:44.344Z,99488.79
2017-09-10T07:54:11.837Z,99488.47
2017-09-10T07:56:39.320Z,99493.70
2017-09-10T07:59:06.781Z,99502.73
2017-09-10T08:01:34.264Z,99508.92
2017-09-10T08:04:01.781Z,99503.27
2017-09-10T08:06:29.242Z,99506.33
2017-09-10T08:08:56.716Z,99508.75
2017-09-10T08:11:24.164Z,99509.62
2017-09-10T08:13:51.652Z,99510.64
2017-09-10T08:16:19.125Z,99509.89
2017-09-10T08:18:46.610Z,99514.77
2017-09-10T08:21:14.063Z,99509.39
2017-09-10T08:23:41.527Z,99515.33
2017-09-10T08:26:09.029Z,99523.33
2017-09-10T08:28:36.584Z,99527.17
2017-09-10T08:31:04.146Z,99533.98
2017-09-10T08:33:31.704Z,99540.28
2017-09-10T08:35:59.261Z,99552.02
2017-09-10T08:38:28.031Z,99545.76
2017-09-10T08:40:55.572Z,99549.35
2017-09-10T08:43:23.049Z,99550.44
2017-09-10T08:45:50.501Z,99549.62
2017-09-10T08:48:18.027Z,99548.83
2017-09-10T08:50:45.481Z,99545.78
2017-09-10T08:53:12.988Z,99549.80
2017-09-10T08:55:40.445Z,99550.11
2017-09-10T08:58:07.912Z,99549.84
2017-09-10T09:00:35.405Z,99545.19
2017-09-10T09:03:02.885Z,99548.84
2017-09-10T09:05:30.380Z,99544.38
2017-09-10T09:07:57.839Z,99547.25
2017-09-10T09:10:25.354Z,99546.55
2017-09-10T09:12:53.094Z,99544.27
2017-09-10T09:15:20.585Z,99539.27
2017-09-10T09:17:48.069Z,99540.73
2017-09-10T09:20:15.624Z,99539.02
2017-09-10T09:22:43.191Z,99534.12
2017-09-10T09:25:10.669Z,99539.20
2017-09-10T09:27:38.129Z,99540.12
2017-09-10T09:30:05.608Z,99536.95
2017-09-10T09:32:33.064Z,99533.65
2017-09-10T09:35:00.570Z,99532.68
2017-09-10T09:37:28.045Z,99534.06
2017-09-10T09:39:55.519Z,99534.13
2017-09-10T09:42:22.977Z,99540.94
2017-09-10T09:44:50.460Z,99545.34
2017-09-10T09:47:17.934Z,99539.97
2017-09-10T09:49:45.453Z,99543.02
2017-09-10T09:52:12.937Z,99541.58
2017-09-10T09:54:40.437Z,99544.86
2017-09-10T09:57:07.884Z,99551.17
2017-09-10T09:59:35.401Z,99552.84
2017-09-10T10:02:02.918Z,99556.47
2017-09-10T10:04:30.465Z,99553.70
2017-09-10T10:06:57.945Z,99551.90
2017-09-10T10:09:25.415Z,99550.72
2017-09-10T10:11:52.893Z,99544.00
2017-09-10T10:14:20.349Z,99540.66
2017-09-10T10:16:47.829Z,99539.58
2017-09-10T10:19:15.281Z,99541.95
2017-09-10T10:21:42.753Z,99550.18
2017-09-10T10:24:10.224Z,99551.32
2017-09-10T10:26:37.778Z,99552.11
2017-09-10T10:29:05.326Z,99554.66
2017-09-10T10:31:32.888Z,99549.44
2017-09-10T10:34:00.332Z,99543.56
2017-09-10T10:36:28.080Z,99547.03
2017-09-10T10:38:55.569Z,99546.81
2017-09-10T10:41:23.049Z,99541.55
2017-09-10T10:43:50.509Z,99546.44
2017-09-10T10:46:18.000Z,99532.44
2017-09-10T10:48:45.484Z,99540.31
2017-09-10T10:51:12.952Z,99534.41
2017-09-10T10:53:40.517Z,99538.84
2017-09-10T10:56:08.068Z,99529.48
2017-09-10T10:58:35.544Z,99524.36
2017-09-10T11:01:03.082Z,99524.67
2017-09-10T11:03:30.549Z,99520.36
2017-09-10T11:05:58.099Z,99525.27
2017-09-10T11:08:25.585Z,99521.13
2017-09-10T11:10:53.163Z,99520.55
2017-09-10T11:13:20.633Z,99524.28
2017-09-10T11:15:48.133Z,99520.02
2017-09-10T11:18:15.685Z,99519.80
2017-09-10T11:20:43.132Z,99519.07
2017-09-10T11:23:10.648Z,99507.00
2017-09-10T11:25:38.097Z,99504.78
2017-09-10T11:28:06.437Z,99500.63
2017-09-10T11:30:33.990Z,99496.77
2017-09-10T11:33:01.465Z,99501.72
2017-09-10T11:35:29.006Z,99492.91
2017-09-10T11:37:56.868Z,99486.36
2017-09-10T11:40:24.317Z,99483.56
2017-09-10T11:42:51.864Z,99484.09
2017-09-10T11:45:19.349Z,99479.08
2017-09-10T11:47:46.855Z,99478.35
2017-09-10T11:50:14.313Z,99477.00
2017-09-10T11:52:41.829Z,99482.82
2017-09-10T11:55:09.285Z,99484.00
2017-09-10T11:57:36.756Z,99476.27
2017-09-10T12:00:04.225Z,99475.17
2017-09-10T12:02:31.685Z,99486.16
2017-09-10T12:04:59.165Z,99484.52
2017-09-10T12:07:26.617Z,99482.29
2017-09-10T12:09:54.091Z,99480.21
2017-09-10T12:12:21.554Z,99472.39
2017-09-10T12:14:49.129Z,99474.72
2017-09-10T12:17:16.618Z,99480.00
2017-09-10T12:19:44.162Z,99471.75
2017-09-10T12:22:11.617Z,99476.72
2017-09-10T12:24:39.360Z,99483.02
2017-09-10T12:27:06.816Z,99486.52
2017-09-10T12:29:34.381Z,99483.02
2017-09-10T12:32:01.855Z,99488.16
2017-09-10T12:34:29.400Z,99483.58
2017-09-10T12:36:56.888Z,99485.23
2017-09-10T12:39:24.364Z,99483.52
2017-09-10T12:41:51.833Z,99479.84
2017-09-10T12:44:19.325Z,99482.09
2017-09-10T12:46:46.790Z,99481.65
2017-09-10T12:49:14.264Z,99486.09
2017-09-10T12:51:41.716Z,99488.30
2017-09-10T12:54:09.257Z,99480.13
2017-09-10T12:56:36.707Z,99476.53
2017-09-10T12:59:04.181Z,99485.29
2017-09-10T13:01:31.732Z,99487.13
2017-09-10T13:03:59.208Z,99486.23
2017-09-10T13:06:26.748Z,99498.53
2017-09-10T13:08:54.223Z,99488.26
2017-09-10T13:11:21.713Z,99486.65
2017-09-10T13:13:49.168Z,99486.65
2017-09-10T13:16:16.652Z,99482.66
2017-09-10T13:18:44.128Z,99492.27
2017-09-10T13:21:11.689Z,99485.91
2017-09-10T13:23:39.255Z,99498.84
2017-09-10T13:26:06.761Z,99485.03
2017-09-10T13:28:34.246Z,99484.03
2017-09-10T13:31:01.724Z,99496.00
2017-09-10T13:33:29.273Z,99500.33
2017-09-10T13:35:57.293Z,99494.66
2017-09-10T13:38:24.760Z,99496.88
2017-09-10T13:40:52.239Z,99495.58
2017-09-10T13:43:19.698Z,99498.33
2017-09-10T13:45:47.282Z,99497.09
2017-09-10T13:48:14.841Z,99489.97
2017-09-10T13:50:42.370Z,99481.09
2017-09-10T13:53:09.828Z,99489.02
2017-09-10T13:55:37.313Z,99485.77
2017-09-10T13:58:04.777Z,99483.41
2017-09-10T14:00:32.251Z,99495.07
2017-09-10T14:02:59.797Z,99490.64
2017-09-10T14:05:27.252Z,99489.68
2017-09-10T14:07:54.724Z,99501.68
2017-09-10T14:10:22.183Z,99494.34
2017-09-10T14:12:49.676Z,99495.91
2017-09-10T14:15:17.156Z,99501.20
2017-09-10T14:17:44.716Z,99497.65
2017-09-10T14:20:12.169Z,99503.03
2017-09-10T14:22:39.732Z,99503.14
2017-09-10T14:25:07.193Z,99487.64
2017-09-10T14:27:34.672Z,99487.20
2017-09-10T14:30:02.112Z,99490.00
2017-09-10T14:32:29.585Z,99484.18
2017-09-10T14:34:57.469Z,99483.66
2017-09-10T14:37:24.946Z,99476.40
2017-09-10T14:39:52.444Z,99475.87
2017-09-10T14:42:20.001Z,99477.62
2017-09-10T14:44:47.561Z,99468.98
2017-09-10T14:47:15.367Z,99469.05
2017-09-10T14:49:42.880Z,99456.30
2017-09-10T14:52:10.365Z,99446.00
2017-09-10T14:54:37.853Z,99440.56
2017-09-10T14:57:05.338Z,99443.60
2017-09-10T14:59:32.789Z,99440.94
2017-09-10T15:02:00.267Z,99433.86
2017-09-10T15:04:27.733Z,99436.03
2017-09-10T15:06:55.209Z,99436.70
2017-09-10T15:09:22.684Z,99432.79
2017-09-10T15:11:50.156Z,99433.78
2017-09-10T15:14:17.703Z,99444.81
2017-09-10T15:16:45.160Z,99436.85
2017-09-10T15:19:12.769Z,99444.09
2017-09-10T15:21:40.249Z,99435.89
2017-09-10T15:24:07.745Z,99435.43
2017-09-10T15:26:35.252Z,99435.03
2017-09-10T15:29:02.728Z,99438.52
2017-09-10T15:31:30.180Z,99438.13
2017-09-10T15:33:57.665Z,99432.15
2017-09-10T15:36:25.125Z,99435.64
2017-09-10T15:38:52.607Z,99425.42
2017-09-10T15:41:20.070Z,99421.28
2017-09-10T15:43:47.577Z,99425.58
2017-09-10T15:46:15.052Z,99420.39
2017-09-10T15:48:42.560Z,99415.01
2017-09-10T15:51:10.113Z,99419.88
2017-09-10T15:53:37.669Z,99407.73
2017-09-10T15:56:05.129Z,99409.02
2017-09-10T15:58:32.633Z,99394.61
2017-09-10T16:01:00.081Z,99395.47
2017-09-10T16:03:27.597Z,99401.88
2017-09-10T16:05:55.075Z,99403.47
2017-09-10T16:08:22.541Z,99407.14
2017-09-10T16:10:50.961Z,99404.47
2017-09-10T16:13:18.422Z,99397.20
2017-09-10T16:15:45.904Z,99401.25
2017-09-10T16:18:13.464Z,99398.31
2017-09-10T16:20:41.053Z,99399.58
2017-09-10T16:23:08.782Z,99393.94
2017-09-10T16:25:36.255Z,99384.58
2017-09-10T16:28:03.829Z,99382.92
2017-09-10T16:30:31.366Z,99389.02
2017-09-10T16:32:58.820Z,99384.82
2017-09-10T16:35:26.563Z,99384.47
2017-09-10T16:37:54.007Z,99377.95
2017-09-10T16:40:21.492Z,99371.94
2017-09-10T16:42:48.957Z,99369.89
2017-09-10T16:45:16.517Z,99360.77
2017-09-10T16:47:43.965Z,99363.92
2017-09-10T16:50:11.468Z,99356.38
2017-09-10T16:52:38.983Z,99356.27
2017-09-10T16:55:06.547Z,99362.52
2017-09-10T16:57:34.110Z,99360.83
2017-09-10T17:00:01.656Z,99363.20
2017-09-10T17:02:29.127Z,99352.81
2017-09-10T17:04:56.619Z,99344.31
2017-09-10T17:07:24.135Z,99348.05
2017-09-10T17:09:51.593Z,99347.87
2017-09-10T17:12:19.073Z,99339.73
2017-09-10T17:14:46.612Z,99342.19
2017-09-10T17:17:14.097Z,99343.21
2017-09-10T17:19:41.543Z,99337.40
2017-09-10T17:22:09.019Z,99333.86
2017-09-10T17:24:36.475Z,99332.47
2017-09-10T17:27:03.956Z,99320.22
2017-09-10T17:29:31.404Z,99314.61
2017-09-10T17:31:58.877Z,99309.41
2017-09-10T17:34:27.168Z,99319.23
2017-09-10T17:36:54.733Z,99316.49
2017-09-10T17:39:22.214Z,99322.18
2017-09-10T17:41:49.700Z,99320.02
2017-09-10T17:44:17.169Z,99313.50
2017-09-10T17:46:44.673Z,99317.45
2017-09-10T17:49:12.217Z,99319.42
2017-09-10T17:51:39.795Z,99318.79
2017-09-10T17:54:07.254Z,99315.00
2017-09-10T17:56:34.803Z,99312.70
2017-09-10T17:59:02.350Z,99317.00
2017-09-10T18:01:29.859Z,99317.25
2017-09-10T18:03:57.373Z,99321.39
2017-09-10T18:06:24.924Z,99319.67
2017-09-10T18:08:52.485Z,99313.85
2017-09-10T18:11:19.939Z,99315.08
2017-09-10T18:13:47.414Z,99319.76
2017-09-10T18:16:14.870Z,99319.92
2017-09-10T18:18:42.343Z,99317.25
2017-09-10T18:21:09.892Z,99319.42
2017-09-10T18:23:37.364Z,99323.20
2017-09-10T18:26:04.827Z,99323.11
2017-09-10T18:28:32.307Z,99319.88
2017-09-10T18:30:59.763Z,99319.98
2017-09-10T18:33:27.279Z,99320.84
2017-09-10T18:35:54.763Z,99318.37
2017-09-10T18:38:22.228Z,99320.53
2017-09-10T18:40:49.683Z,99321.22
2017-09-10T18:43:17.160Z,99316.70
2017-09-10T18:45:44.617Z,99315.16
2017-09-10T18:48:12.109Z,99320.73
2017-09-10T18:50:39.581Z,99320.26
2017-09-10T18:53:07.061Z,99321.44
2017-09-10T18:55:34.572Z,99316.77
2017-09-10T18:58:02.057Z,99323.25
2017-09-10T19:00:29.523Z,99323.05
2017-09-10T19:02:57.049Z,99318.61
2017-09-10T19:05:24.528Z,99324.17
2017-09-10T19:07:52.004Z,99327.70
2017-09-10T19:10:19.524Z,99318.59
2017-09-10T19:12:47.383Z,99323.27
2017-09-10T19:15:14.949Z,99329.48
2017-09-10T19:17:42.428Z,99335.37
2017-09-10T19:20:09.961Z,99326.90
2017-09-10T19:22:37.453Z,99321.52
2017-09-10T19:25:05.122Z,99321.73
2017-09-10T19:27:32.605Z,99327.64
2017-09-10T19:30:00.121Z,99321.48
2017-09-10T19:32:27.661Z,99315.43
2017-09-10T19:34:55.135Z,99315.66
2017-09-10T19:37:23.053Z,99322.42
2017-09-10T19:39:50.577Z,99324.36
2017-09-10T19:42:18.082Z,99325.19
2017-09-10T19:44:45.578Z,99319.69
2017-09-10T19:47:13.041Z,99316.54
2017-09-10T19:49:40.525Z,99311.37
2017-09-10T19:52:08.013Z,99314.13
2017-09-10T19:54:35.587Z,99310.80
2017-09-10T19:57:03.167Z,99310.83
2017-09-10T19:59:30.645Z,99308.22
2017-09-10T20:01:58.202Z,99320.30
2017-09-10T20:04:25.731Z,99320.52
2017-09-10T20:06:53.204Z,99317.33
2017-09-10T20:09:20.717Z,99322.24
2017-09-10T20:11:48.185Z,99319.62
2017-09-10T20:14:16.057Z,99319.95
2017-09-10T20:16:43.611Z,99319.81
2017-09-10T20:19:11.070Z,99325.19
2017-09-10T20:21:38.549Z,99329.24
2017-09-10T20:24:06.060Z,99330.58
2017-09-10T20:26:33.535Z,99331.97
2017-09-10T20:29:01.098Z,99338.17
2017-09-10T20:31:28.648Z,99331.06
2017-09-10T20:33:56.114Z,99326.40
2017-09-10T20:36:23.609Z,99331.66
2017-09-10T20:38:51.103Z,99328.30
2017-09-10T20:41:18.577Z,99319.97
2017-09-10T20:43:46.038Z,99316.36
2017-09-10T20:46:13.596Z,99319.06
2017-09-10T20:48:41.073Z,99307.74
2017-09-10T20:51:08.551Z,99306.95
2017-09-10T20:53:36.013Z,99306.30
2017-09-10T20:56:03.501Z,99301.30
2017-09-10T20:58:30.957Z,99299.03
2017-09-10T21:00:58.449Z,99297.27
2017-09-10T21:03:25.912Z,99285.67
2017-09-10T21:05:53.389Z,99292.59
2017-09-10T21:08:20.872Z,99286.19
2017-09-10T21:10:48.355Z,99290.03
2017-09-10T21:13:15.825Z,99286.42
2017-09-10T21:15:43.289Z,99290.95
2017-09-10T21:18:10.765Z,99287.14
2017-09-10T21:20:38.222Z,99283.97
2017-09-10T21:23:05.696Z,99277.69
2017-09-10T21:25:33.354Z,99275.77
2017-09-10T21:28:00.823Z,99268.38
2017-09-10T21:30:28.318Z,99266.36
2017-09-10T21:32:56.132Z,99272.14
2017-09-10T21:35:23.650Z,99275.19
2017-09-10T21:37:51.149Z,99266.94
2017-09-10T21:40:18.680Z,99271.96
2017-09-10T21:42:46.164Z,99264.30
2017-09-10T21:45:13.669Z,99263.88
2017-09-10T21:47:41.389Z,99255.19
2017-09-10T21:50:09.045Z,99250.79
2017-09-10T21:52:36.525Z,99245.91
2017-09-10T21:55:04.048Z,99244.93
2017-09-10T21:57:31.524Z,99250.77
2017-09-10T21:59:58.973Z,99258.34
2017-09-10T22:02:26.529Z,99246.59
2017-09-10T22:04:53.972Z,99249.28
2017-09-10T22:07:21.445Z,99242.51
2017-09-10T22:09:48.950Z,99238.56
2017-09-10T22:12:16.397Z,99228.82
2017-09-10T22:14:43.981Z,99225.58
2017-09-10T22:17:11.433Z,99224.63
2017-09-10T22:19:38.912Z,99220.30
2017-09-10T22:22:06.361Z,99215.33
2017-09-10T22:24:33.892Z,99216.53
2017-09-10T22:27:01.381Z,99208.84
2017-09-10T22:29:28.856Z,99199.82
2017-09-10T22:31:56.321Z,99189.73
2017-09-10T22:34:23.821Z,99191.88
2017-09-10T22:36:51.432Z,99194.08
2017-09-10T22:39:18.905Z,99189.81
2017-09-10T22:41:46.429Z,99180.00
2017-09-10T22:44:13.888Z,99175.20
2017-09-10T22:46:41.368Z,99165.28
2017-09-10T22:49:09.688Z,99158.86
2017-09-10T22:51:37.133Z,99160.58
2017-09-10T22:54:04.600Z,99154.30
2017-09-10T22:56:32.188Z,99149.94
2017-09-10T22:58:59.705Z,99143.14
2017-09-10T23:01:27.755Z,99147.72
2017-09-10T23:03:55.229Z,99138.42
2017-09-10T23:06:22.705Z,99140.47
2017-09-10T23:08:50.169Z,99131.38
2017-09-10T23:11:17.653Z,99134.75
2017-09-10T23:13:45.323Z,99130.03
2017-09-10T23:16:12.823Z,99122.70
2017-09-10T23:18:40.277Z,99128.83
2017-09-10T23:21:07.782Z,99122.20
2017-09-10T23:23:35.238Z,99123.59
2017-09-10T23:26:02.923Z,99123.83
2017-09-10T23:28:30.425Z,99113.14
2017-09-10T23:30:57.896Z,99113.95
2017-09-10T23:33:25.353Z,99115.20
2017-09-10T23:35:52.830Z,99102.91
2017-09-10T23:38:20.360Z,99103.91
2017-09-10T23:40:47.909Z,99109.44
2017-09-10T23:43:15.361Z,99106.65
2017-09-10T23:45:42.831Z,99100.19
2017-09-10T23:48:10.279Z,99107.63
2017-09-10T23:50:37.837Z,99111.17
2017-09-10T23:53:05.416Z,99111.52
2017-09-10T23:55:32.889Z,99118.70
2017-09-10T23:58:00.419Z,99106.30
